createdAt,value
2022-08-26T00:03:18.188Z,108.83
2022-08-26T00:08:21.398Z,109.73
2022-08-26T00:13:23.358Z,110.16
2022-08-26T00:18:25.296Z,110.29
2022-08-26T00:23:28.855Z,112.04
2022-08-26T00:28:31.384Z,113.13
2022-08-26T00:33:33.489Z,114.04
2022-08-26T00:38:37.857Z,114.56
2022-08-26T00:43:46.152Z,115.43
2022-08-26T00:48:53.817Z,116.45
2022-08-26T00:53:59.685Z,115.86
2022-08-26T00:59:06.529Z,115.30
2022-08-26T01:04:10.288Z,116.65
2022-08-26T01:09:12.778Z,117.60
2022-08-26T01:14:15.111Z,117.89
2022-08-26T01:19:33.869Z,117.90
2022-08-26T01:24:36.481Z,117.86
2022-08-26T01:29:39.629Z,118.96
2022-08-26T01:34:41.884Z,118.02
2022-08-26T01:39:46.092Z,117.73
2022-08-26T01:44:55.611Z,118.06
2022-08-26T01:50:00.908Z,-5.89
2022-08-26T01:55:05.981Z,-5.28
2022-08-26T02:00:13.341Z,-4.62
2022-08-26T02:05:22.081Z,-4.18
2022-08-26T02:10:24.313Z,-3.73
2022-08-26T02:15:28.442Z,-3.22
2022-08-26T02:20:30.988Z,-2.94
2022-08-26T02:25:50.038Z,-3.45
2022-08-26T02:30:51.989Z,-2.46
2022-08-26T02:35:54.253Z,-2.68
2022-08-26T02:40:56.421Z,-2.34
2022-08-26T02:46:00.059Z,-1.20
2022-08-26T02:51:03.893Z,-1.03
2022-08-26T02:56:08.556Z,-1.06
2022-08-26T03:01:32.433Z,-0.29
2022-08-26T03:06:34.661Z,1.68
2022-08-26T03:11:40.056Z,1.29
2022-08-26T03:16:42.174Z,2.69
2022-08-26T03:21:44.489Z,2.03
2022-08-26T03:26:52.017Z,0.87
2022-08-26T03:31:55.322Z,0.81
2022-08-26T03:36:57.426Z,0.54
2022-08-26T03:41:59.813Z,0.71
2022-08-26T03:47:02.040Z,0.82
2022-08-26T03:52:05.231Z,-0.09
2022-08-26T03:57:09.102Z,-1.06
2022-08-26T04:02:11.476Z,-2.22
2022-08-26T04:07:13.860Z,-3.41
2022-08-26T04:12:17.495Z,-4.34
2022-08-26T04:17:20.174Z,-4.41
2022-08-26T04:22:26.925Z,-4.78
2022-08-26T04:27:31.502Z,118.50
2022-08-26T04:32:33.494Z,115.64
2022-08-26T04:37:35.924Z,113.94
2022-08-26T04:42:37.904Z,113.29
2022-08-26T04:47:40.175Z,114.21
2022-08-26T04:52:43.465Z,115.60
2022-08-26T04:57:45.585Z,116.77
2022-08-26T05:02:47.724Z,117.63
2022-08-26T05:07:53.544Z,117.98
2022-08-26T05:12:55.754Z,-5.62
2022-08-26T05:17:59.420Z,-5.65
2022-08-26T05:23:03.064Z,118.34
2022-08-26T05:28:05.129Z,114.97
2022-08-26T05:33:09.167Z,112.29
2022-08-26T05:38:14.497Z,109.52
2022-08-26T05:43:17.232Z,109.56
2022-08-26T05:48:22.657Z,108.89
2022-08-26T05:53:26.374Z,108.85
2022-08-26T05:58:28.505Z,108.93
2022-08-26T06:03:31.663Z,104.30
2022-08-26T06:08:34.551Z,103.89
2022-08-26T06:13:38.015Z,104.16
2022-08-26T06:18:42.633Z,102.49
2022-08-26T06:24:04.548Z,103.17
2022-08-26T06:29:07.545Z,102.18
2022-08-26T06:34:11.066Z,100.38
2022-08-26T06:39:14.806Z,103.29
2022-08-26T06:44:17.633Z,105.37
2022-08-26T06:49:27.423Z,104.05
2022-08-26T06:54:32.546Z,98.84
2022-08-26T06:59:34.488Z,101.29
2022-08-26T07:04:36.512Z,99.86
2022-08-26T07:09:38.956Z,102.07
2022-08-26T07:14:47.287Z,101.32
2022-08-26T07:19:49.786Z,100.10
2022-08-26T07:24:51.781Z,98.80
2022-08-26T07:29:57.164Z,100.09
2022-08-26T07:35:00.265Z,101.25
2022-08-26T07:40:07.270Z,102.40
2022-08-26T07:45:11.717Z,102.94
2022-08-26T07:50:14.545Z,103.64
2022-08-26T07:55:18.556Z,106.58
2022-08-26T08:00:21.904Z,107.04
2022-08-26T08:05:33.280Z,105.93
2022-08-26T08:10:36.764Z,104.83
2022-08-26T08:15:39.264Z,104.41
2022-08-26T08:20:44.667Z,103.95
2022-08-26T08:25:49.660Z,103.89
2022-08-26T08:30:53.170Z,104.73
2022-08-26T08:35:55.604Z,103.60
2022-08-26T08:40:57.921Z,101.25
2022-08-26T08:46:10.729Z,99.58
2022-08-26T08:51:22.235Z,100.40
2022-08-26T08:56:32.306Z,98.24
2022-08-26T09:01:53.855Z,95.62
2022-08-26T09:06:59.046Z,88.87
2022-08-26T09:12:02.161Z,87.21
2022-08-26T09:17:30.460Z,87.03
2022-08-26T09:22:35.373Z,84.03
2022-08-26T09:27:46.370Z,82.68
2022-08-26T09:33:10.372Z,79.32
2022-08-26T09:38:26.865Z,81.05
2022-08-26T09:43:30.612Z,79.25
2022-08-26T09:48:40.563Z,80.04
2022-08-26T09:53:55.072Z,81.81
2022-08-26T09:58:57.745Z,80.37
2022-08-26T10:04:04.231Z,80.21
2022-08-26T10:09:10.890Z,79.18
2022-08-26T10:14:21.937Z,79.31
2022-08-26T10:19:56.965Z,78.08
2022-08-26T10:25:03.285Z,77.06
2022-08-26T10:30:10.300Z,75.42
2022-08-26T10:35:13.712Z,77.28
2022-08-26T10:40:25.370Z,75.15
2022-08-26T10:45:30.217Z,73.83
2022-08-26T10:50:38.644Z,73.27
2022-08-26T10:56:15.907Z,69.77
2022-08-26T11:01:47.215Z,70.92
2022-08-26T11:07:31.794Z,70.11
2022-08-26T11:12:37.314Z,69.47
2022-08-26T11:17:44.496Z,70.66
2022-08-26T11:22:47.788Z,67.63
2022-08-26T11:27:51.693Z,66.86
2022-08-26T11:32:56.193Z,66.14
2022-08-26T11:38:20.660Z,65.95
2022-08-26T11:43:26.036Z,66.74
2022-08-26T11:48:36.893Z,62.91
2022-08-26T11:53:41.309Z,62.96
2022-08-26T11:58:45.289Z,63.24
2022-08-26T12:03:49.215Z,60.98
2022-08-26T12:08:52.536Z,63.23
2022-08-26T12:13:59.150Z,61.83
2022-08-26T12:19:01.276Z,61.46
2022-08-26T12:24:04.552Z,60.09
2022-08-26T12:29:20.087Z,55.45
2022-08-26T12:34:28.916Z,56.21
2022-08-26T12:39:33.361Z,55.13
2022-08-26T12:44:53.699Z,57.51
2022-08-26T12:50:07.498Z,54.36
2022-08-26T12:55:27.894Z,54.70
2022-08-26T13:00:33.935Z,54.83
2022-08-26T13:05:36.014Z,55.79
2022-08-26T13:10:40.456Z,56.50
2022-08-26T13:15:42.431Z,56.44
2022-08-26T13:20:44.787Z,56.66
2022-08-26T13:25:46.773Z,56.79
2022-08-26T13:30:49.653Z,57.27
2022-08-26T13:35:51.629Z,57.28
2022-08-26T13:40:53.744Z,56.65
2022-08-26T13:45:55.832Z,56.92
2022-08-26T13:50:57.909Z,56.88
2022-08-26T13:56:01.188Z,58.10
2022-08-26T14:01:03.460Z,58.91
2022-08-26T14:06:05.628Z,58.47
2022-08-26T14:11:07.933Z,58.79
2022-08-26T14:16:26.273Z,58.77
2022-08-26T14:21:34.176Z,59.31
2022-08-26T14:26:36.165Z,60.92
2022-08-26T14:31:38.507Z,58.69
2022-08-26T14:36:40.506Z,59.73
2022-08-26T14:41:53.923Z,59.74
2022-08-26T14:46:57.414Z,59.90
2022-08-26T14:51:59.886Z,60.84
2022-08-26T14:57:03.748Z,62.12
2022-08-26T15:02:07.486Z,59.59
2022-08-26T15:07:09.638Z,59.47
2022-08-26T15:12:14.773Z,58.77
2022-08-26T15:17:16.772Z,58.35
2022-08-26T15:22:18.888Z,58.51
2022-08-26T15:27:21.017Z,59.18
2022-08-26T15:32:23.251Z,58.16
2022-08-26T15:37:25.216Z,59.46
2022-08-26T15:42:27.268Z,59.15
2022-08-26T15:47:29.200Z,59.70
2022-08-26T15:52:31.520Z,59.77
2022-08-26T15:57:33.517Z,61.12
2022-08-26T16:02:35.794Z,60.57
2022-08-26T16:07:38.140Z,61.72
2022-08-26T16:12:40.173Z,60.93
2022-08-26T16:17:42.125Z,61.76
2022-08-26T16:22:44.413Z,61.94
2022-08-26T16:27:46.453Z,61.98
2022-08-26T16:32:49.678Z,61.50
2022-08-26T16:37:52.897Z,62.18
2022-08-26T16:42:55.070Z,62.12
2022-08-26T16:47:57.073Z,63.65
2022-08-26T16:52:59.109Z,62.58
2022-08-26T16:58:01.239Z,63.82
2022-08-26T17:03:04.237Z,63.79
2022-08-26T17:08:06.515Z,65.38
2022-08-26T17:13:08.669Z,65.89
2022-08-26T17:18:11.235Z,67.32
2022-08-26T17:23:13.249Z,67.80
2022-08-26T17:28:15.252Z,68.68
2022-08-26T17:33:21.939Z,69.32
2022-08-26T17:38:29.176Z,71.98
2022-08-26T17:43:31.366Z,74.53
2022-08-26T17:48:33.396Z,76.81
2022-08-26T17:53:35.427Z,78.05
2022-08-26T17:58:38.134Z,79.75
2022-08-26T18:03:40.575Z,81.33
2022-08-26T18:08:42.632Z,82.03
2022-08-26T18:13:47.366Z,82.66
2022-08-26T18:18:53.434Z,84.02
2022-08-26T18:23:56.030Z,85.48
2022-08-26T18:28:58.633Z,86.61
2022-08-26T18:34:02.330Z,86.90
2022-08-26T18:39:05.818Z,87.63
2022-08-26T18:44:13.288Z,87.28
2022-08-26T18:49:16.914Z,87.03
2022-08-26T18:59:29.498Z,90.03
2022-08-26T19:04:32.906Z,91.16
2022-08-26T19:09:35.969Z,91.47
2022-08-26T19:14:38.162Z,92.08
2022-08-26T19:19:40.198Z,91.36
2022-08-26T19:24:42.255Z,92.74
2022-08-26T19:29:47.743Z,87.89
2022-08-26T19:34:51.425Z,87.03
2022-08-26T19:39:53.545Z,86.95
2022-08-26T19:45:07.428Z,87.61
2022-08-26T19:50:14.788Z,91.09
2022-08-26T19:55:18.052Z,91.47
2022-08-26T20:00:26.117Z,92.59
2022-08-26T20:05:28.485Z,91.94
2022-08-26T20:10:30.470Z,92.64
2022-08-26T20:15:33.521Z,92.06
2022-08-26T20:20:53.859Z,93.18
2022-08-26T20:25:57.369Z,89.05
2022-08-26T20:30:59.725Z,88.68
2022-08-26T20:36:02.206Z,87.82
2022-08-26T20:41:09.293Z,87.92
2022-08-26T20:46:17.947Z,87.58
2022-08-26T20:51:23.526Z,87.41
2022-08-26T20:56:25.641Z,87.52
2022-08-26T21:01:30.707Z,88.62
2022-08-26T21:06:33.927Z,88.68
2022-08-26T21:11:38.048Z,88.88
2022-08-26T21:16:41.540Z,88.88
2022-08-26T21:21:44.709Z,88.93
2022-08-26T21:26:46.935Z,89.22
2022-08-26T21:31:49.303Z,89.34
2022-08-26T21:36:51.316Z,89.59
2022-08-26T21:41:53.384Z,90.02
2022-08-26T21:46:55.756Z,90.20
2022-08-26T21:51:57.762Z,90.23
2022-08-26T21:56:59.849Z,90.57
2022-08-26T22:02:02.054Z,90.76
2022-08-26T22:07:05.006Z,91.08
2022-08-26T22:12:10.935Z,90.66
2022-08-26T22:17:13.605Z,91.15
2022-08-26T22:22:16.263Z,91.30
2022-08-26T22:27:18.313Z,91.12
2022-08-26T22:32:20.261Z,91.18
2022-08-26T22:37:22.200Z,91.65
2022-08-26T22:42:24.158Z,92.28
2022-08-26T22:47:26.688Z,92.75
2022-08-26T22:52:28.801Z,93.08
2022-08-26T22:57:31.085Z,93.36
2022-08-26T23:02:33.020Z,93.26
2022-08-26T23:07:35.885Z,94.50
2022-08-26T23:12:38.004Z,96.66
2022-08-26T23:17:40.297Z,97.12
2022-08-26T23:22:42.208Z,96.72
2022-08-26T23:27:44.441Z,98.57
2022-08-26T23:32:46.774Z,99.13
2022-08-26T23:37:53.571Z,99.32
2022-08-26T23:42:59.969Z,99.76
2022-08-26T23:48:02.055Z,100.38
2022-08-26T23:53:07.449Z,101.48
2022-08-26T23:58:09.546Z,101.87
